createdAt,value
2022-08-22T00:01:26.773Z,22
2022-08-22T00:02:49.713Z,23.1
2022-08-22T00:02:54.352Z,22
2022-08-22T00:02:54.996Z,22.5
2022-08-22T00:04:24.986Z,23.3
2022-08-22T00:07:21.663Z,22.7
2022-08-22T00:10:31.134Z,21.4
2022-08-22T00:13:34.212Z,21.8
2022-08-22T00:16:30.852Z,23
2022-08-22T00:19:25.095Z,22.6
2022-08-22T00:22:33.681Z,21.3
2022-08-22T00:25:27.727Z,21.1
2022-08-22T00:28:29.479Z,22.2
2022-08-22T00:31:23.060Z,23.4
2022-08-22T00:34:16.592Z,22.6
2022-08-22T00:37:15.297Z,21.5
2022-08-22T00:40:11.144Z,21.9
2022-08-22T00:43:12.240Z,23.3
2022-08-22T00:46:22.865Z,22.7
2022-08-22T00:49:33.281Z,21.4
2022-08-22T00:52:38.296Z,21.3
2022-08-22T00:55:43.488Z,22
2022-08-22T00:58:48.204Z,22.2
2022-08-22T01:01:51.744Z,22.2
2022-08-22T01:04:49.919Z,22.6
2022-08-22T01:07:52.006Z,22.8
2022-08-22T01:10:54.089Z,22.7
2022-08-22T01:13:56.314Z,22.6
2022-08-22T01:17:00.305Z,22.4
2022-08-22T01:20:15.024Z,22.4
2022-08-22T01:23:40.402Z,22.2
2022-08-22T01:28:02.157Z,22.1
2022-08-22T01:31:16.593Z,22.1
2022-08-22T01:34:41.541Z,22.2
2022-08-22T01:37:53.825Z,22.2
2022-08-22T01:41:10.482Z,22.2
2022-08-22T01:44:28.716Z,22.2
2022-08-22T01:47:37.910Z,22.2
2022-08-22T01:50:36.846Z,22.2
2022-08-22T01:53:31.183Z,22.3
2022-08-22T01:56:28.973Z,22.4
2022-08-22T01:59:21.248Z,22.5
2022-08-22T02:02:21.023Z,22.4
2022-08-22T02:05:21.464Z,22.2
2022-08-22T02:08:16.320Z,22.2
2022-08-22T02:11:12.126Z,22.1
2022-08-22T02:14:29.624Z,22
2022-08-22T02:17:27.080Z,21.9
2022-08-22T02:20:17.731Z,21.8
2022-08-22T02:23:13.793Z,21.8
2022-08-22T02:26:09.541Z,21.9
2022-08-22T02:29:02.394Z,22.8
2022-08-22T02:31:57.237Z,23.6
2022-08-22T02:34:53.522Z,22.7
2022-08-22T02:37:50.686Z,21.6
2022-08-22T02:40:50.071Z,22.1
2022-08-22T02:43:50.948Z,22.8
2022-08-22T02:46:42.737Z,22.6
2022-08-22T02:49:43.690Z,21.4
2022-08-22T02:52:37.854Z,21.3
2022-08-22T02:55:40.884Z,22.1
2022-08-22T02:58:48.672Z,22.9
2022-08-22T03:01:40.883Z,22.6
2022-08-22T03:04:31.013Z,21.5
2022-08-22T03:07:37.956Z,21.8
2022-08-22T03:10:33.793Z,22.9
2022-08-22T03:13:25.544Z,23.8
2022-08-22T03:16:25.629Z,22.8
2022-08-22T03:19:19.197Z,21.8
2022-08-22T03:22:15.490Z,22.8
2022-08-22T03:25:10.409Z,23.6
2022-08-22T03:28:08.761Z,22.5
2022-08-22T03:31:03.144Z,21.4
2022-08-22T03:33:59.533Z,22.4
2022-08-22T03:37:19.149Z,23.6
2022-08-22T03:40:16.891Z,22.7
2022-08-22T03:43:12.074Z,21.4
2022-08-22T03:46:18.603Z,21.8
2022-08-22T03:49:21.868Z,23.2
2022-08-22T03:52:40.729Z,22.7
2022-08-22T03:55:52.232Z,21.4
2022-08-22T03:59:18.428Z,22.3
2022-08-22T04:02:42.781Z,23.7
2022-08-22T04:05:54.645Z,22.6
2022-08-22T04:09:26.704Z,21.3
2022-08-22T04:12:39.185Z,22.5
2022-08-22T04:15:55.825Z,23.9
2022-08-22T04:19:21.529Z,23.1
2022-08-22T04:22:26.265Z,21.7
2022-08-22T04:25:51.970Z,22.7
2022-08-22T04:28:44.060Z,23.5
2022-08-22T04:31:35.869Z,22.5
2022-08-22T04:34:32.494Z,21.6
2022-08-22T04:37:24.473Z,22.7
2022-08-22T04:40:21.019Z,23.8
2022-08-22T04:43:13.761Z,22.8
2022-08-22T04:46:09.376Z,21.6
2022-08-22T04:49:04.724Z,22.4
2022-08-22T04:52:00.385Z,23.7
2022-08-22T04:55:00.645Z,23.1
2022-08-22T04:58:02.412Z,21.8
2022-08-22T05:01:07.835Z,22.6
2022-08-22T05:04:01.590Z,23.7
2022-08-22T05:06:54.160Z,22.9
2022-08-22T05:09:46.887Z,22.2
2022-08-22T05:12:37.829Z,23.4
2022-08-22T05:15:32.942Z,23.1
2022-08-22T05:18:23.621Z,21.9
2022-08-22T05:21:22.787Z,22.3
2022-08-22T05:24:19.280Z,23.6
2022-08-22T05:27:11.820Z,23
2022-08-22T05:30:03.192Z,21.8
2022-08-22T05:32:56.265Z,22.5
2022-08-22T05:35:57.945Z,23.9
2022-08-22T05:38:49.254Z,23.5
2022-08-22T05:41:41.116Z,22.2
2022-08-22T05:44:29.679Z,21.9
2022-08-22T05:47:19.285Z,23.2
2022-08-22T05:50:11.593Z,23.8
2022-08-22T05:53:03.649Z,22.7
2022-08-22T05:55:55.465Z,22
2022-08-22T05:58:47.479Z,23.3
2022-08-22T06:01:40.058Z,23.7
2022-08-22T06:04:36.655Z,22.6
2022-08-22T06:07:36.396Z,22
2022-08-22T06:10:29.972Z,23.3
2022-08-22T06:13:24.915Z,24
2022-08-22T06:16:19.992Z,22.8
2022-08-22T06:19:19.360Z,22
2022-08-22T06:22:09.472Z,23.2
2022-08-22T06:25:07.091Z,24.2
2022-08-22T06:27:59.807Z,23.3
2022-08-22T06:30:52.225Z,22.3
2022-08-22T06:33:45.746Z,23.3
2022-08-22T06:36:43.460Z,24
2022-08-22T06:39:34.402Z,22.9
2022-08-22T06:42:26.142Z,22.6
2022-08-22T06:45:17.229Z,23.8
2022-08-22T06:48:10.957Z,23.7
2022-08-22T06:51:03.358Z,22.5
2022-08-22T06:53:53.466Z,22.9
2022-08-22T06:56:46.882Z,24.2
2022-08-22T06:59:37.700Z,23.9
2022-08-22T07:02:27.549Z,22.8
2022-08-22T07:05:21.651Z,23.2
2022-08-22T07:08:13.021Z,24.5
2022-08-22T07:11:06.485Z,24
2022-08-22T07:14:00.640Z,22.7
2022-08-22T07:16:51.628Z,23.1
2022-08-22T07:19:43.484Z,24.4
2022-08-22T07:22:39.717Z,24
2022-08-22T07:25:39.066Z,22.7
2022-08-22T07:28:51.433Z,23.4
2022-08-22T07:31:53.443Z,24.7
2022-08-22T07:34:51.310Z,23.8
2022-08-22T07:37:53.630Z,22.5
2022-08-22T07:40:49.400Z,23.2
2022-08-22T07:43:45.433Z,24.6
2022-08-22T07:46:37.683Z,24
2022-08-22T07:49:35.056Z,22.8
2022-08-22T07:52:29.706Z,23.7
2022-08-22T07:55:25.449Z,24.9
2022-08-22T07:58:13.461Z,24.1
2022-08-22T08:01:02.244Z,22.9
2022-08-22T08:03:53.714Z,23.4
2022-08-22T08:06:45.677Z,24.7
2022-08-22T08:09:37.206Z,24.3
2022-08-22T08:12:31.915Z,23.1
2022-08-22T08:15:22.963Z,23.3
2022-08-22T08:18:11.201Z,24.6
2022-08-22T08:21:06.546Z,24.3
2022-08-22T08:23:59.986Z,23
2022-08-22T08:26:50.850Z,23.4
2022-08-22T08:30:15.396Z,24.9
2022-08-22T08:33:25.014Z,24.3
2022-08-22T08:36:17.139Z,23
2022-08-22T08:39:19.460Z,23.9
2022-08-22T08:42:11.993Z,25.1
2022-08-22T08:46:02.969Z,24
2022-08-22T08:49:30.872Z,23.4
2022-08-22T08:52:35.592Z,24.6
2022-08-22T08:55:43.290Z,25
2022-08-22T08:58:39.359Z,23.8
2022-08-22T09:01:44.996Z,23.5
2022-08-22T09:04:51.206Z,24.9
2022-08-22T09:08:24.709Z,25.1
2022-08-22T09:11:44.661Z,23.6
2022-08-22T09:15:37.395Z,24.4
2022-08-22T09:18:39.479Z,25.6
2022-08-22T09:21:51.239Z,24.6
2022-08-22T09:24:57.142Z,23.7
2022-08-22T09:28:08.327Z,24.9
2022-08-22T09:31:01.915Z,25.7
2022-08-22T09:34:23.975Z,24.4
2022-08-22T09:37:19.860Z,23.9
2022-08-22T09:40:22.232Z,25.3
2022-08-22T09:43:21.596Z,25.7
2022-08-22T09:46:21.795Z,24.5
2022-08-22T09:49:26.886Z,23.9
2022-08-22T09:52:36.005Z,25.2
2022-08-22T09:55:42.305Z,25.9
2022-08-22T09:58:41.524Z,24.8
2022-08-22T10:01:42.244Z,24.4
2022-08-22T10:04:38.033Z,25.8
2022-08-22T10:07:38.232Z,25.5
2022-08-22T10:10:48.058Z,24.2
2022-08-22T10:13:57.317Z,24.7
2022-08-22T10:16:59.314Z,26
2022-08-22T10:19:57.754Z,25.3
2022-08-22T10:22:55.186Z,24.2
2022-08-22T10:25:57.588Z,25
2022-08-22T10:28:58.486Z,25.9
2022-08-22T10:32:14.638Z,24.9
2022-08-22T10:35:15.533Z,23.8
2022-08-22T10:38:12.395Z,24.9
2022-08-22T10:41:09.672Z,25.8
2022-08-22T10:44:08.332Z,24.9
2022-08-22T10:47:04.616Z,23.8
2022-08-22T10:49:59.619Z,24.4
2022-08-22T10:52:54.941Z,25.8
2022-08-22T10:56:14.854Z,24.9
2022-08-22T10:59:11.006Z,23.7
2022-08-22T11:02:11.471Z,24.3
2022-08-22T11:05:19.522Z,25.7
2022-08-22T11:08:17.761Z,25.1
2022-08-22T11:11:18.597Z,23.8
2022-08-22T11:14:21.251Z,24.4
2022-08-22T11:17:32.277Z,25.8
2022-08-22T11:20:59.255Z,25
2022-08-22T11:23:52.666Z,23.7
2022-08-22T11:26:52.448Z,24.5
2022-08-22T11:29:48.506Z,25.4
2022-08-22T11:32:47.767Z,25.3
2022-08-22T11:36:04.493Z,23.8
2022-08-22T11:39:13.737Z,23.9
2022-08-22T11:42:21.839Z,25.2
2022-08-22T11:45:17.650Z,24.5
2022-08-22T11:48:10.297Z,23.3
2022-08-22T11:51:13.144Z,23.6
2022-08-22T11:54:15.281Z,25
2022-08-22T11:57:11.472Z,24.6
2022-08-22T12:00:06.123Z,23.3
2022-08-22T12:03:03.714Z,23.6
2022-08-22T12:06:12.755Z,25
2022-08-22T12:09:55.802Z,24.2
2022-08-22T12:12:49.447Z,23
2022-08-22T12:15:45.482Z,23.6
2022-08-22T12:18:43.212Z,24.9
2022-08-22T12:21:39.974Z,24.4
2022-08-22T12:25:00.916Z,23.1
2022-08-22T12:28:03.231Z,24
2022-08-22T12:31:04.136Z,25.1
2022-08-22T12:34:01.570Z,24.2
2022-08-22T12:37:04.413Z,22.9
2022-08-22T12:40:03.577Z,23.7
2022-08-22T12:43:09.331Z,25.2
2022-08-22T12:46:13.144Z,24.6
2022-08-22T12:49:12.531Z,23.2
2022-08-22T12:52:14.142Z,23.9
2022-08-22T12:55:15.665Z,25.2
2022-08-22T12:58:17.916Z,24.5
2022-08-22T13:01:34.081Z,23.1
2022-08-22T13:04:32.990Z,23.7
2022-08-22T13:07:28.039Z,25.2
2022-08-22T13:10:19.959Z,25.1
2022-08-22T13:13:29.480Z,23.9
2022-08-22T13:16:24.291Z,24.3
2022-08-22T13:19:22.201Z,25.8
2022-08-22T13:22:16.487Z,25.5
2022-08-22T13:25:10.822Z,24.4
2022-08-22T13:28:09.246Z,25
2022-08-22T13:30:58.796Z,26
2022-08-22T13:33:48.366Z,25.6
2022-08-22T13:36:42.588Z,24.5
2022-08-22T13:39:45.215Z,24.9
2022-08-22T13:42:36.004Z,26
2022-08-22T13:45:32.307Z,25.3
2022-08-22T13:48:22.037Z,24.3
2022-08-22T13:51:31.678Z,25
2022-08-22T13:54:26.256Z,26.4
2022-08-22T13:57:30.683Z,26
2022-08-22T14:00:29.118Z,24.9
2022-08-22T14:04:05.022Z,24.5
2022-08-22T14:07:06.163Z,26
2022-08-22T14:10:16.523Z,25.7
2022-08-22T14:13:08.818Z,25
2022-08-22T14:16:22.785Z,24.7
2022-08-22T14:19:17.202Z,26.4
2022-08-22T14:22:14.447Z,26.7
2022-08-22T14:25:08.501Z,26
2022-08-22T14:28:09.375Z,25.4
2022-08-22T14:31:13.022Z,26.6
2022-08-22T14:34:09.103Z,26.5
2022-08-22T14:36:59.810Z,26.1
2022-08-22T14:39:57.697Z,25.9
2022-08-22T14:42:52.260Z,25.9
2022-08-22T14:45:46.636Z,27.1
2022-08-22T14:48:42.373Z,27.3
2022-08-22T14:52:32.552Z,26.8
2022-08-22T14:55:25.048Z,26.4
2022-08-22T14:58:12.956Z,26.1
2022-08-22T15:01:04.530Z,25.7
2022-08-22T15:03:56.361Z,25.5
2022-08-22T15:06:48.837Z,26.4
2022-08-22T15:09:41.824Z,27
2022-08-22T15:12:37.780Z,26.4
2022-08-22T15:15:49.682Z,25.6
2022-08-22T15:18:51.541Z,25
2022-08-22T15:21:41.611Z,25.6
2022-08-22T15:24:31.521Z,26.3
2022-08-22T15:27:24.073Z,25.6
2022-08-22T15:30:20.600Z,24.8
2022-08-22T15:33:20.334Z,24.5
2022-08-22T15:36:11.077Z,26
2022-08-22T15:39:04.649Z,26.2
2022-08-22T15:42:44.189Z,25.2
2022-08-22T15:45:36.053Z,24.5
2022-08-22T15:48:24.896Z,25.4
2022-08-22T15:51:16.120Z,26.7
2022-08-22T15:54:27.692Z,26.1
2022-08-22T15:57:50.898Z,25
2022-08-22T16:00:51.553Z,24.5
2022-08-22T16:03:52.783Z,26
2022-08-22T16:06:46.523Z,26.1
2022-08-22T16:09:39.493Z,25.1
2022-08-22T16:12:35.276Z,24.2
2022-08-22T16:15:28.799Z,24.8
2022-08-22T16:18:57.497Z,26.4
2022-08-22T16:22:01.532Z,25.7
2022-08-22T16:24:57.707Z,24.7
2022-08-22T16:27:48.478Z,24.5
2022-08-22T16:30:41.619Z,26
2022-08-22T16:33:29.417Z,26
2022-08-22T16:36:22.180Z,25
2022-08-22T16:39:29.570Z,24
2022-08-22T16:42:22.286Z,24.6
2022-08-22T16:45:18.976Z,26.2
2022-08-22T16:48:18.934Z,25.9
2022-08-22T16:51:15.814Z,24.8
2022-08-22T16:54:03.459Z,24.2
2022-08-22T16:57:25.392Z,25.7
2022-08-22T17:00:22.775Z,26.3
2022-08-22T17:03:18.909Z,25.2
2022-08-22T17:06:18.119Z,24.1
2022-08-22T17:09:22.554Z,24.7
2022-08-22T17:12:39.573Z,26.2
2022-08-22T17:15:39.014Z,25.4
2022-08-22T17:18:42.236Z,24.3
2022-08-22T17:21:51.733Z,24.8
2022-08-22T17:24:46.758Z,26.2
2022-08-22T17:27:47.439Z,25.6
2022-08-22T17:30:47.281Z,24.3
2022-08-22T17:33:53.303Z,24.3
2022-08-22T17:36:49.786Z,25.7
2022-08-22T17:39:55.548Z,25.5
2022-08-22T17:43:02.340Z,24.3
2022-08-22T17:46:13.390Z,24.7
2022-08-22T17:49:15.461Z,26
2022-08-22T17:52:14.438Z,25.2
2022-08-22T17:55:09.191Z,24.1
2022-08-22T17:58:02.679Z,24.7
2022-08-22T18:00:58.603Z,26
2022-08-22T18:03:55.293Z,25.3
2022-08-22T18:06:47.771Z,24.1
2022-08-22T18:10:06.461Z,24.7
2022-08-22T18:13:07.180Z,26.1
2022-08-22T18:15:59.736Z,25.4
2022-08-22T18:18:52.437Z,24.2
2022-08-22T18:21:47.723Z,24.6
2022-08-22T18:24:41.040Z,25.8
2022-08-22T18:27:35.724Z,25.5
2022-08-22T18:30:36.702Z,24.1
2022-08-22T18:33:37.950Z,24.6
2022-08-22T18:36:34.266Z,25.8
2022-08-22T18:39:30.416Z,25.2
2022-08-22T18:42:27.226Z,23.9
2022-08-22T18:45:22.163Z,24.4
2022-08-22T18:48:59.298Z,25.7
2022-08-22T18:52:26.553Z,24.8
2022-08-22T18:55:30.000Z,23.6
2022-08-22T18:58:37.045Z,24.4
2022-08-22T19:01:44.115Z,25.8
2022-08-22T19:04:47.496Z,25.1
2022-08-22T19:07:58.152Z,23.8
2022-08-22T19:11:11.727Z,24.6
2022-08-22T19:14:15.790Z,25.8
2022-08-22T19:17:20.408Z,25
2022-08-22T19:20:24.002Z,23.7
2022-08-22T19:23:47.862Z,24.5
2022-08-22T19:26:37.763Z,25.6
2022-08-22T19:29:29.083Z,25.2
2022-08-22T19:32:52.387Z,23.8
2022-08-22T19:35:45.157Z,24.1
2022-08-22T19:38:54.771Z,25.5
2022-08-22T19:41:46.439Z,25.3
2022-08-22T19:44:38.259Z,24.2
2022-08-22T19:47:27.993Z,23.9
2022-08-22T19:50:19.911Z,25.2
2022-08-22T19:53:15.168Z,25.4
2022-08-22T19:56:21.900Z,24.2
2022-08-22T19:59:22.038Z,24.1
2022-08-22T20:02:21.795Z,25.4
2022-08-22T20:05:20.328Z,25.2
2022-08-22T20:08:16.999Z,24
2022-08-22T20:11:20.217Z,24.4
2022-08-22T20:14:29.969Z,25.7
2022-08-22T20:17:21.656Z,25
2022-08-22T20:20:27.930Z,23.8
2022-08-22T20:23:42.468Z,24.6
2022-08-22T20:26:30.250Z,25.8
2022-08-22T20:29:18.954Z,25.3
2022-08-22T20:32:11.500Z,24.1
2022-08-22T20:35:02.520Z,24
2022-08-22T20:38:06.417Z,25.3
2022-08-22T20:41:00.608Z,24.9
2022-08-22T20:43:56.836Z,23.8
2022-08-22T20:46:53.497Z,24.1
2022-08-22T20:49:46.926Z,25.6
2022-08-22T20:52:38.602Z,25.2
2022-08-22T20:55:31.514Z,24.1
2022-08-22T20:58:19.459Z,24.2
2022-08-22T21:01:10.091Z,25.5
2022-08-22T21:04:00.331Z,24.8
2022-08-22T21:06:49.534Z,23.8
2022-08-22T21:09:44.774Z,24.2
2022-08-22T21:13:11.213Z,25.5
2022-08-22T21:16:04.344Z,24.7
2022-08-22T21:18:58.777Z,23.5
2022-08-22T21:21:46.613Z,23.8
2022-08-22T21:24:34.266Z,25.1
2022-08-22T21:27:22.186Z,24.9
2022-08-22T21:30:14.060Z,23.7
2022-08-22T21:33:10.230Z,23
2022-08-22T21:36:01.361Z,24.4
2022-08-22T21:38:49.314Z,25.5
2022-08-22T21:41:40.351Z,24.7
2022-08-22T21:44:37.180Z,23.5
2022-08-22T21:47:30.657Z,23.8
2022-08-22T21:50:22.060Z,25.2
2022-08-22T21:53:19.201Z,24.9
2022-08-22T21:56:12.473Z,23.7
2022-08-22T21:59:12.069Z,22.6
2022-08-22T22:02:11.877Z,23.6
2022-08-22T22:05:21.351Z,24.8
2022-08-22T22:08:09.283Z,24
2022-08-22T22:10:57.695Z,23
2022-08-22T22:13:48.880Z,23.3
2022-08-22T22:16:36.636Z,24.8
2022-08-22T22:19:24.086Z,24.6
2022-08-22T22:22:11.527Z,23.5
2022-08-22T22:24:59.167Z,22.5
2022-08-22T22:27:46.630Z,23.2
2022-08-22T22:30:34.978Z,24.5
2022-08-22T22:33:22.707Z,24.1
2022-08-22T22:36:13.965Z,23
2022-08-22T22:39:05.630Z,23.4
2022-08-22T22:41:55.151Z,24.3
2022-08-22T22:44:47.404Z,23.5
2022-08-22T22:47:35.232Z,22.7
2022-08-22T22:50:22.896Z,23.8
2022-08-22T22:53:10.812Z,24.8
2022-08-22T22:56:00.095Z,24
2022-08-22T22:58:48.731Z,22.9
2022-08-22T23:01:37.786Z,22.2
2022-08-22T23:04:46.340Z,23.7
2022-08-22T23:07:38.355Z,24.9
2022-08-22T23:10:26.756Z,24.2
2022-08-22T23:13:16.075Z,23.1
2022-08-22T23:16:03.810Z,23.3
2022-08-22T23:18:52.478Z,24.6
2022-08-22T23:21:40.478Z,24.1
2022-08-22T23:24:29.944Z,23.1
2022-08-22T23:27:18.719Z,23
2022-08-22T23:30:06.259Z,24.5
2022-08-22T23:32:55.742Z,24.4
2022-08-22T23:35:43.558Z,23.4
2022-08-22T23:38:31.269Z,22.6
2022-08-22T23:41:18.925Z,23.7
2022-08-22T23:44:06.731Z,24.8
2022-08-22T23:46:58.456Z,23.9
2022-08-22T23:49:46.905Z,22.9
2022-08-22T23:52:34.508Z,22.7
2022-08-22T23:55:22.217Z,24.1
2022-08-22T23:58:09.877Z,24.2
